Terminal Aerodrome Forecast
Issued by NWS Cleveland, OH

Home | Current Version | Previous Version | Text Only | Print | Product List | Glossary On
Versions: 1 2 3 4 5 6 7 8 9 10 11 12 13 14 15 16 17 18 19 20
000
FTUS41 KCLE 280500 RRA
TAFTOL
TAF
KTOL 280547Z 2806/2906 32006KT P6SM SCT035 BKN050
     FM280700 31010KT 5SM BR OVC012
      TEMPO 2810/2814 33012G20KT BKN006
     FM281500 34014KT P6SM BKN025
     FM281700 34014G22KT P6SM BKN035
     FM290100 27004KT P6SM SCT040 BKN100=

USA.gov is the U.S. government's official web portal to all federal, state and local government web resources and services.